createdAt,value
2019-03-06T00:01:36.223Z,4.13
2019-03-06T00:04:05.109Z,3.50
2019-03-06T00:06:33.760Z,4.83
2019-03-06T00:09:02.892Z,3.60
2019-03-06T00:11:31.535Z,3.70
2019-03-06T00:14:00.134Z,4.53
2019-03-06T00:16:28.710Z,3.60
2019-03-06T00:18:57.292Z,3.87
2019-03-06T00:21:26.771Z,4.13
2019-03-06T00:23:55.403Z,3.73
2019-03-06T00:26:24.450Z,3.90
2019-03-06T00:28:53.005Z,3.67
2019-03-06T00:31:21.689Z,4.07
2019-03-06T00:34:10.092Z,3.97
2019-03-06T00:36:39.004Z,5.23
2019-03-06T00:39:08.594Z,6.03
2019-03-06T00:41:38.789Z,4.50
2019-03-06T00:44:07.504Z,4.47
2019-03-06T00:46:36.128Z,4.40
2019-03-06T00:49:05.187Z,4.57
2019-03-06T00:51:33.844Z,4.50
2019-03-06T00:54:02.679Z,5.23
2019-03-06T00:56:31.245Z,4.70
2019-03-06T00:58:59.869Z,4.83
2019-03-06T01:01:28.587Z,5.00
2019-03-06T01:03:57.226Z,5.47
2019-03-06T01:06:27.258Z,5.07
2019-03-06T01:08:56.081Z,5.47
2019-03-06T01:11:24.840Z,4.67
2019-03-06T01:13:54.011Z,7.37
2019-03-06T01:16:22.680Z,5.60
2019-03-06T01:18:51.408Z,6.43
2019-03-06T01:21:31.904Z,5.57
2019-03-06T01:24:00.618Z,4.77
2019-03-06T01:26:29.791Z,6.60
2019-03-06T01:28:58.371Z,6.07
2019-03-06T01:31:26.946Z,7.23
2019-03-06T01:33:57.149Z,6.13
2019-03-06T01:36:30.053Z,7.53
2019-03-06T01:39:16.560Z,8.07
2019-03-06T01:41:49.375Z,10.80
2019-03-06T01:44:22.295Z,10.00
2019-03-06T01:46:50.859Z,8.37
2019-03-06T01:49:19.838Z,8.70
2019-03-06T01:51:48.403Z,10.07
2019-03-06T01:54:17.039Z,6.07
2019-03-06T01:56:45.604Z,5.80
2019-03-06T01:59:14.189Z,7.00
2019-03-06T02:01:42.895Z,5.53
2019-03-06T02:04:11.636Z,8.37
2019-03-06T02:06:40.299Z,5.40
2019-03-06T02:09:09.856Z,5.33
2019-03-06T02:11:38.561Z,4.27
2019-03-06T02:14:07.227Z,5.40
2019-03-06T02:16:35.824Z,7.47
2019-03-06T02:19:05.883Z,11.10
2019-03-06T02:21:34.534Z,8.93
2019-03-06T02:24:03.124Z,7.23
2019-03-06T02:26:31.895Z,10.43
2019-03-06T02:29:00.674Z,9.93
2019-03-06T02:31:29.351Z,5.07
2019-03-06T02:33:57.967Z,4.70
2019-03-06T02:36:26.641Z,6.13
2019-03-06T02:38:55.221Z,6.40
2019-03-06T02:41:24.111Z,7.33
2019-03-06T02:43:52.667Z,6.73
2019-03-06T02:46:21.335Z,5.80
2019-03-06T02:48:49.933Z,6.03
2019-03-06T02:51:18.494Z,6.67
2019-03-06T02:53:47.592Z,5.37
2019-03-06T02:56:16.250Z,5.57
2019-03-06T02:58:46.473Z,5.30
2019-03-06T03:01:19.663Z,7.17
2019-03-06T03:04:07.938Z,8.27
2019-03-06T03:06:38.334Z,7.23
2019-03-06T03:09:16.085Z,7.80
2019-03-06T03:11:44.777Z,9.77
2019-03-06T03:14:13.363Z,8.23
2019-03-06T03:16:42.128Z,9.97
2019-03-06T03:19:11.262Z,10.83
2019-03-06T03:21:39.902Z,7.77
2019-03-06T03:24:08.438Z,6.80
2019-03-06T03:26:37.640Z,6.33
2019-03-06T03:29:06.370Z,6.83
2019-03-06T03:31:35.107Z,4.43
2019-03-06T03:34:03.927Z,9.00
2019-03-06T03:36:32.563Z,6.00
2019-03-06T03:39:01.177Z,7.13
2019-03-06T03:41:49.146Z,5.27
2019-03-06T03:44:18.150Z,7.10
2019-03-06T03:46:47.069Z,4.83
2019-03-06T03:49:16.081Z,6.50
2019-03-06T03:51:44.787Z,5.53
2019-03-06T03:54:19.109Z,7.13
2019-03-06T03:56:47.757Z,6.63
2019-03-06T03:59:16.446Z,5.80
2019-03-06T04:01:45.902Z,6.80
2019-03-06T04:04:14.454Z,6.10
2019-03-06T04:06:43.105Z,6.20
2019-03-06T04:09:11.840Z,6.23
2019-03-06T04:11:40.414Z,7.10
2019-03-06T04:14:08.973Z,6.97
2019-03-06T04:16:37.560Z,6.50
2019-03-06T04:19:06.207Z,7.03
2019-03-06T04:21:34.757Z,5.30
2019-03-06T04:24:03.481Z,5.90
2019-03-06T04:26:32.087Z,6.90
2019-03-06T04:29:00.770Z,6.93
2019-03-06T04:31:29.353Z,6.43
2019-03-06T04:33:57.980Z,13.27
2019-03-06T04:36:26.946Z,9.27
2019-03-06T04:38:55.601Z,9.17
2019-03-06T04:41:24.490Z,7.40
2019-03-06T04:43:54.339Z,8.53
2019-03-06T04:46:22.923Z,8.30
2019-03-06T04:48:51.489Z,7.27
2019-03-06T04:51:20.070Z,5.93
2019-03-06T04:53:49.139Z,7.30
2019-03-06T04:56:17.813Z,5.77
2019-03-06T04:58:46.485Z,6.33
2019-03-06T05:01:15.066Z,9.80
2019-03-06T05:03:43.793Z,6.17
2019-03-06T05:06:12.393Z,6.27
2019-03-06T05:08:40.982Z,7.63
2019-03-06T05:11:09.666Z,6.80
2019-03-06T05:13:38.228Z,7.00
2019-03-06T05:16:06.781Z,10.53
2019-03-06T05:18:37.182Z,45.53
2019-03-06T05:21:05.786Z,30.67
2019-03-06T05:23:34.405Z,76.43
2019-03-06T05:26:03.123Z,18.63
2019-03-06T05:28:31.880Z,9.33
2019-03-06T05:31:00.465Z,12.73
2019-03-06T05:33:29.255Z,10.00
2019-03-06T05:36:03.702Z,15.70
2019-03-06T05:38:35.381Z,11.90
2019-03-06T05:41:04.065Z,10.27
2019-03-06T05:43:33.111Z,11.33
2019-03-06T05:46:01.657Z,7.33
2019-03-06T05:48:35.555Z,8.27
2019-03-06T05:51:23.447Z,9.07
2019-03-06T05:53:52.154Z,7.87
2019-03-06T05:56:20.686Z,9.50
2019-03-06T05:58:49.294Z,8.37
2019-03-06T06:01:17.901Z,8.07
2019-03-06T06:03:46.789Z,8.93
2019-03-06T06:06:15.508Z,10.27
2019-03-06T06:08:44.271Z,9.40
2019-03-06T06:11:13.006Z,21.53
2019-03-06T06:13:41.671Z,18.53
2019-03-06T06:16:12.002Z,17.33
2019-03-06T06:18:40.714Z,13.27
2019-03-06T06:21:29.201Z,11.73
2019-03-06T06:23:59.432Z,9.43
2019-03-06T06:26:28.320Z,10.07
2019-03-06T06:28:56.931Z,9.77
2019-03-06T06:31:25.484Z,11.63
2019-03-06T06:33:54.066Z,12.37
2019-03-06T06:36:22.738Z,10.07
2019-03-06T06:38:51.344Z,10.30
2019-03-06T06:41:19.937Z,11.87
2019-03-06T06:43:48.469Z,10.20
2019-03-06T06:46:17.046Z,9.83
2019-03-06T06:48:46.786Z,12.90
2019-03-06T06:51:21.426Z,10.53
2019-03-06T06:53:56.397Z,10.97
2019-03-06T06:56:34.016Z,12.73
2019-03-06T06:59:27.382Z,10.13
2019-03-06T07:02:36.289Z,10.80
2019-03-06T07:05:18.006Z,8.70
2019-03-06T07:07:48.369Z,8.33
2019-03-06T07:10:37.558Z,8.00
2019-03-06T07:13:21.190Z,9.60
2019-03-06T07:16:06.830Z,8.80
2019-03-06T07:18:40.297Z,7.60
2019-03-06T07:21:16.463Z,9.83
2019-03-06T07:23:56.411Z,10.67
2019-03-06T07:26:26.947Z,8.73
2019-03-06T07:28:57.450Z,9.23
2019-03-06T07:31:37.575Z,9.77
2019-03-06T07:34:14.905Z,11.13
2019-03-06T07:37:03.339Z,9.63
2019-03-06T07:39:33.359Z,10.57
2019-03-06T07:42:06.353Z,14.47
2019-03-06T07:44:51.991Z,14.90
2019-03-06T07:47:28.298Z,15.03
2019-03-06T07:49:58.520Z,11.27
2019-03-06T07:52:43.985Z,15.00
2019-03-06T07:55:14.737Z,9.30
2019-03-06T07:58:11.866Z,9.77
2019-03-06T08:00:40.422Z,9.03
2019-03-06T08:03:09.412Z,9.67
2019-03-06T08:05:38.328Z,8.27
2019-03-06T08:08:14.391Z,7.80
2019-03-06T08:10:44.297Z,7.90
2019-03-06T08:13:14.813Z,9.90
2019-03-06T08:15:46.861Z,9.37
2019-03-06T08:18:17.082Z,9.70
2019-03-06T08:20:50.291Z,10.50
2019-03-06T08:23:23.834Z,9.27
2019-03-06T08:25:52.973Z,8.23
2019-03-06T08:28:21.543Z,7.13
2019-03-06T08:30:58.079Z,6.30
2019-03-06T08:33:39.681Z,16.63
2019-03-06T08:36:08.401Z,7.57
2019-03-06T08:38:46.792Z,13.07
2019-03-06T08:41:17.004Z,10.17
2019-03-06T08:43:45.874Z,17.67
2019-03-06T08:46:19.079Z,5.23
2019-03-06T08:49:05.263Z,4.67
2019-03-06T08:51:38.579Z,2.57
2019-03-06T08:54:24.955Z,2.03
2019-03-06T08:57:02.597Z,2.27
2019-03-06T08:59:35.574Z,2.60
2019-03-06T09:02:22.397Z,1.77
2019-03-06T09:04:53.018Z,1.83
2019-03-06T09:07:29.159Z,1.80
2019-03-06T09:10:03.692Z,4.10
2019-03-06T09:12:34.935Z,4.77
2019-03-06T09:17:47.976Z,2.63
2019-03-06T09:20:38.216Z,1.70
2019-03-06T09:23:09.122Z,2.63
2019-03-06T09:25:58.852Z,2.47
2019-03-06T09:28:29.638Z,1.30
2019-03-06T09:31:11.726Z,2.47
2019-03-06T09:33:54.026Z,2.00
2019-03-06T09:36:24.439Z,3.97
2019-03-06T09:38:57.516Z,2.90
2019-03-06T09:41:27.722Z,1.77
2019-03-06T09:43:57.955Z,4.33
2019-03-06T09:46:30.011Z,3.87
2019-03-06T09:49:11.150Z,3.03
2019-03-06T09:51:41.229Z,1.90
2019-03-06T09:54:27.526Z,7.93
2019-03-06T09:57:14.187Z,3.00
2019-03-06T09:59:52.243Z,3.57
2019-03-06T10:02:22.541Z,3.57
2019-03-06T10:04:52.768Z,1.63
2019-03-06T10:07:29.055Z,3.23
2019-03-06T10:09:59.534Z,1.43
2019-03-06T10:12:30.398Z,1.60
2019-03-06T10:15:18.414Z,1.40
2019-03-06T10:17:48.863Z,4.07
2019-03-06T10:20:25.336Z,3.80
2019-03-06T10:22:54.915Z,1.43
2019-03-06T10:25:29.775Z,1.70
2019-03-06T10:27:53.748Z,1.30
2019-03-06T10:30:22.749Z,1.20
2019-03-06T10:32:51.672Z,1.47
2019-03-06T10:35:20.329Z,1.13
2019-03-06T10:37:49.374Z,3.63
2019-03-06T10:40:19.562Z,1.70
2019-03-06T10:42:48.721Z,4.83
2019-03-06T10:45:18.563Z,1.33
2019-03-06T10:47:47.902Z,4.50
2019-03-06T10:50:26.335Z,1.73
2019-03-06T10:52:51.867Z,1.80
2019-03-06T10:55:21.518Z,2.93
2019-03-06T10:57:50.538Z,1.30
2019-03-06T11:00:26.415Z,1.97
2019-03-06T11:02:56.968Z,2.07
2019-03-06T11:05:27.613Z,1.13
2019-03-06T11:08:00.085Z,3.57
2019-03-06T11:10:30.738Z,2.73
2019-03-06T11:13:00.679Z,2.30
2019-03-06T11:15:29.723Z,3.77
2019-03-06T11:17:58.518Z,1.60
2019-03-06T11:20:33.555Z,2.13
2019-03-06T11:23:08.974Z,3.57
2019-03-06T11:25:39.888Z,2.50
2019-03-06T11:28:11.445Z,3.47
2019-03-06T11:30:49.417Z,2.50
2019-03-06T11:33:19.687Z,2.30
2019-03-06T11:35:49.586Z,2.03
2019-03-06T11:38:18.912Z,1.47
2019-03-06T11:40:47.830Z,1.60
2019-03-06T11:43:16.586Z,1.47
2019-03-06T11:45:46.163Z,1.77
2019-03-06T11:48:14.850Z,3.03
2019-03-06T11:50:44.221Z,3.00
2019-03-06T11:53:12.974Z,1.90
2019-03-06T11:55:41.690Z,1.90
2019-03-06T11:58:13.423Z,1.90
2019-03-06T12:00:45.361Z,2.27
2019-03-06T12:03:21.644Z,2.20
2019-03-06T12:05:51.275Z,2.00
2019-03-06T12:08:20.995Z,2.27
2019-03-06T12:10:50.754Z,5.93
2019-03-06T12:13:19.943Z,1.87
2019-03-06T12:15:50.749Z,5.10
2019-03-06T12:18:21.504Z,4.27
2019-03-06T12:20:50.172Z,2.17
2019-03-06T12:23:19.000Z,1.63
2019-03-06T12:25:48.791Z,1.70
2019-03-06T12:28:17.923Z,1.77
2019-03-06T12:30:47.557Z,2.27
2019-03-06T12:33:22.019Z,3.80
2019-03-06T12:35:50.876Z,2.57
2019-03-06T12:38:19.510Z,1.90
2019-03-06T12:40:50.234Z,4.27
2019-03-06T12:43:19.171Z,3.80
2019-03-06T12:46:10.594Z,1.73
2019-03-06T12:48:40.417Z,3.13
2019-03-06T12:51:09.123Z,2.67
2019-03-06T12:53:37.942Z,3.00
2019-03-06T12:56:06.955Z,3.47
2019-03-06T12:58:35.558Z,2.70
2019-03-06T13:01:05.557Z,2.17
2019-03-06T13:03:34.301Z,2.77
2019-03-06T13:06:03.011Z,2.07
2019-03-06T13:08:32.071Z,3.40
2019-03-06T13:11:01.310Z,1.60
2019-03-06T13:13:35.545Z,4.30
2019-03-06T13:16:00.486Z,3.90
2019-03-06T13:18:30.310Z,2.23
2019-03-06T13:20:58.866Z,2.00
2019-03-06T13:23:27.812Z,2.03
2019-03-06T13:25:57.869Z,2.07
2019-03-06T13:28:26.595Z,2.10
2019-03-06T13:31:14.657Z,1.77
2019-03-06T13:34:00.015Z,1.33
2019-03-06T13:36:28.943Z,2.03
2019-03-06T13:39:06.038Z,2.93
2019-03-06T13:41:27.925Z,1.70
2019-03-06T13:43:56.537Z,4.53
2019-03-06T13:46:25.315Z,1.77
2019-03-06T13:48:54.090Z,1.67
2019-03-06T13:51:22.757Z,1.63
2019-03-06T13:53:51.566Z,3.87
2019-03-06T13:56:21.886Z,1.90
2019-03-06T13:58:50.543Z,1.70
2019-03-06T14:01:19.204Z,1.73
2019-03-06T14:03:47.920Z,2.03
2019-03-06T14:06:16.792Z,2.10
2019-03-06T14:08:45.664Z,1.63
2019-03-06T14:11:14.398Z,1.97
2019-03-06T14:13:43.332Z,1.83
2019-03-06T14:16:11.997Z,2.03
2019-03-06T14:18:40.811Z,4.40
2019-03-06T14:21:09.767Z,2.50
2019-03-06T14:23:38.470Z,4.83
2019-03-06T14:26:07.958Z,2.80
2019-03-06T14:28:36.609Z,5.00
2019-03-06T14:31:05.570Z,3.70
2019-03-06T14:33:34.312Z,4.47
2019-03-06T14:36:03.035Z,2.73
2019-03-06T14:38:51.039Z,2.57
2019-03-06T14:41:19.826Z,2.33
2019-03-06T14:43:48.737Z,1.70
2019-03-06T14:46:17.728Z,1.97
2019-03-06T14:48:46.566Z,3.13
2019-03-06T14:51:16.140Z,2.87
2019-03-06T14:53:45.152Z,2.10
2019-03-06T14:56:13.819Z,4.43
2019-03-06T14:58:42.778Z,1.70
2019-03-06T15:01:11.741Z,3.33
2019-03-06T15:03:40.596Z,3.77
2019-03-06T15:06:12.616Z,3.20
2019-03-06T15:08:41.363Z,2.60
2019-03-06T15:11:10.354Z,1.97
2019-03-06T15:13:39.202Z,2.53
2019-03-06T15:16:08.265Z,2.67
2019-03-06T15:18:36.974Z,3.90
2019-03-06T15:21:05.681Z,2.07
2019-03-06T15:23:36.483Z,1.90
2019-03-06T15:26:26.190Z,3.20
2019-03-06T15:28:56.058Z,1.97
2019-03-06T15:31:24.774Z,1.87
2019-03-06T15:33:53.543Z,2.37
2019-03-06T15:36:22.555Z,2.30
2019-03-06T15:38:51.618Z,1.90
2019-03-06T15:41:20.651Z,3.53
2019-03-06T15:43:49.584Z,2.07
2019-03-06T15:46:18.233Z,2.03
2019-03-06T15:48:48.758Z,1.90
2019-03-06T15:51:17.411Z,2.40
2019-03-06T15:53:46.156Z,4.57
2019-03-06T15:56:15.040Z,3.97
2019-03-06T15:58:43.632Z,5.47
2019-03-06T16:01:13.874Z,4.43
2019-03-06T16:03:43.901Z,2.00
2019-03-06T16:06:20.416Z,2.40
2019-03-06T16:08:45.536Z,2.03
2019-03-06T16:11:14.083Z,1.97
2019-03-06T16:13:44.961Z,3.03
2019-03-06T16:16:15.503Z,2.43
2019-03-06T16:18:46.169Z,3.23
2019-03-06T16:21:35.626Z,4.10
2019-03-06T16:24:04.754Z,2.40
2019-03-06T16:26:33.624Z,4.37
2019-03-06T16:29:02.637Z,7.20
2019-03-06T16:31:31.380Z,5.50
2019-03-06T16:34:00.119Z,4.33
2019-03-06T16:36:29.660Z,3.77
2019-03-06T16:38:58.388Z,4.00
2019-03-06T16:41:26.998Z,3.10
2019-03-06T16:43:56.470Z,3.57
2019-03-06T16:46:25.435Z,4.27
2019-03-06T16:48:54.099Z,5.87
2019-03-06T16:51:22.752Z,3.50
2019-03-06T16:53:51.334Z,3.00
2019-03-06T16:56:19.899Z,6.67
2019-03-06T16:58:48.950Z,4.30
2019-03-06T17:01:17.564Z,3.80
2019-03-06T17:03:46.328Z,6.00
2019-03-06T17:06:14.976Z,8.33
2019-03-06T17:08:43.683Z,4.87
2019-03-06T17:11:12.404Z,5.80
2019-03-06T17:13:41.291Z,4.13
2019-03-06T17:16:10.275Z,7.87
2019-03-06T17:18:39.178Z,7.37
2019-03-06T17:21:07.953Z,4.30
2019-03-06T17:23:36.599Z,4.83
2019-03-06T17:26:05.440Z,6.03
2019-03-06T17:28:34.830Z,6.87
2019-03-06T17:31:03.885Z,6.93
2019-03-06T17:33:32.609Z,5.80
2019-03-06T17:36:01.214Z,7.13
2019-03-06T17:38:30.234Z,7.47
2019-03-06T17:40:58.873Z,3.50
2019-03-06T17:43:28.174Z,6.30
2019-03-06T17:45:56.829Z,7.03
2019-03-06T17:48:25.453Z,4.07
2019-03-06T17:50:54.205Z,5.93
2019-03-06T17:53:23.021Z,7.57
2019-03-06T17:55:51.734Z,7.33
2019-03-06T17:58:20.775Z,7.77
2019-03-06T18:00:50.964Z,5.20
2019-03-06T18:03:24.996Z,5.00
2019-03-06T18:05:53.614Z,7.97
2019-03-06T18:08:22.413Z,4.60
2019-03-06T18:11:10.610Z,10.53
2019-03-06T18:13:39.506Z,8.40
2019-03-06T18:16:08.244Z,6.50
2019-03-06T18:18:36.958Z,6.43
2019-03-06T18:21:05.611Z,7.40
2019-03-06T18:23:35.688Z,9.30
2019-03-06T18:26:06.088Z,11.03
2019-03-06T18:28:35.235Z,10.60
2019-03-06T18:31:03.870Z,11.83
2019-03-06T18:33:32.682Z,7.70
2019-03-06T18:36:01.270Z,12.10
2019-03-06T18:38:30.442Z,12.67
2019-03-06T18:41:00.491Z,7.43
2019-03-06T18:43:29.199Z,7.90
2019-03-06T18:45:57.806Z,8.40
2019-03-06T18:48:26.460Z,6.60
2019-03-06T18:50:55.230Z,9.20
2019-03-06T18:53:24.066Z,8.37
2019-03-06T18:55:52.960Z,9.40
2019-03-06T18:58:40.909Z,11.57
2019-03-06T19:01:11.175Z,10.43
2019-03-06T19:03:40.394Z,9.17
2019-03-06T19:06:09.110Z,8.03
2019-03-06T19:08:46.586Z,9.53
2019-03-06T19:11:17.217Z,7.93
2019-03-06T19:13:45.791Z,10.20
2019-03-06T19:16:14.458Z,10.33
2019-03-06T19:18:43.043Z,12.93
2019-03-06T19:21:11.749Z,7.13
2019-03-06T19:23:40.704Z,14.70
2019-03-06T19:26:09.616Z,18.93
2019-03-06T19:28:38.295Z,26.53
2019-03-06T19:31:07.009Z,20.37
2019-03-06T19:33:35.955Z,12.50
2019-03-06T19:36:04.846Z,10.97
2019-03-06T19:38:33.509Z,14.10
2019-03-06T19:41:02.145Z,10.93
2019-03-06T19:43:30.690Z,12.07
2019-03-06T19:45:59.668Z,10.27
2019-03-06T19:48:31.017Z,9.93
2019-03-06T19:51:01.010Z,11.17
2019-03-06T19:53:29.580Z,10.27
2019-03-06T19:55:58.266Z,9.07
2019-03-06T19:58:26.969Z,9.27
2019-03-06T20:00:57.159Z,14.30
2019-03-06T20:03:25.959Z,10.20
2019-03-06T20:05:54.523Z,8.87
2019-03-06T20:08:23.196Z,9.80
2019-03-06T20:10:51.827Z,6.57
2019-03-06T20:13:20.533Z,14.53
2019-03-06T20:15:50.019Z,9.37
2019-03-06T20:18:37.944Z,8.10
2019-03-06T20:21:08.784Z,10.00
2019-03-06T20:23:38.874Z,11.87
2019-03-06T20:26:15.253Z,10.37
2019-03-06T20:28:42.943Z,10.93
2019-03-06T20:31:11.650Z,7.50
2019-03-06T20:33:40.297Z,13.10
2019-03-06T20:36:09.051Z,7.70
2019-03-06T20:38:40.977Z,8.87
2019-03-06T20:41:09.719Z,6.77
2019-03-06T20:43:38.378Z,7.33
2019-03-06T20:46:07.011Z,8.00
2019-03-06T20:48:35.856Z,8.87
2019-03-06T20:51:04.543Z,8.33
2019-03-06T20:53:33.286Z,8.50
2019-03-06T20:56:02.079Z,11.13
2019-03-06T20:58:30.751Z,9.77
2019-03-06T21:00:59.674Z,8.87
2019-03-06T21:03:28.489Z,7.70
2019-03-06T21:05:57.198Z,9.03
2019-03-06T21:08:26.024Z,8.87
2019-03-06T21:11:13.955Z,7.17
2019-03-06T21:13:42.614Z,7.47
2019-03-06T21:16:11.335Z,7.07
2019-03-06T21:18:40.374Z,9.10
2019-03-06T21:21:09.163Z,10.80
2019-03-06T21:23:37.829Z,13.23
2019-03-06T21:26:06.682Z,10.87
2019-03-06T21:28:35.421Z,11.00
2019-03-06T21:31:04.214Z,9.30
2019-03-06T21:33:33.411Z,8.67
2019-03-06T21:36:04.049Z,7.60
2019-03-06T21:38:32.777Z,9.10
2019-03-06T21:41:01.571Z,8.63
2019-03-06T21:43:30.530Z,5.93
2019-03-06T21:46:00.702Z,8.00
2019-03-06T21:48:48.831Z,5.80
2019-03-06T21:51:17.419Z,9.77
2019-03-06T21:53:46.064Z,10.83
2019-03-06T21:56:14.739Z,8.80
2019-03-06T21:58:43.508Z,9.60
2019-03-06T22:01:12.822Z,8.50
2019-03-06T22:03:41.428Z,8.40
2019-03-06T22:06:10.235Z,8.37
2019-03-06T22:08:38.918Z,7.47
2019-03-06T22:11:07.634Z,9.83
2019-03-06T22:13:36.300Z,6.07
2019-03-06T22:16:05.278Z,8.13
2019-03-06T22:18:35.285Z,8.80
2019-03-06T22:21:05.690Z,5.90
2019-03-06T22:23:34.583Z,5.40
2019-03-06T22:26:03.294Z,7.93
2019-03-06T22:28:31.926Z,7.37
2019-03-06T22:31:01.074Z,11.10
2019-03-06T22:33:29.666Z,6.33
2019-03-06T22:35:58.244Z,7.10
2019-03-06T22:38:26.863Z,8.70
2019-03-06T22:40:55.435Z,5.63
2019-03-06T22:43:24.022Z,4.27
2019-03-06T22:45:52.606Z,3.43
2019-03-06T22:48:21.162Z,3.03
2019-03-06T22:50:49.950Z,6.00
2019-03-06T22:53:18.574Z,5.10
2019-03-06T22:55:47.237Z,5.33
2019-03-06T22:58:15.941Z,3.27
2019-03-06T23:00:49.254Z,4.17
2019-03-06T23:03:18.915Z,6.60
2019-03-06T23:05:47.585Z,5.33
2019-03-06T23:08:16.301Z,3.60
2019-03-06T23:10:44.973Z,4.60
2019-03-06T23:13:13.669Z,5.63
2019-03-06T23:15:43.761Z,4.80
2019-03-06T23:18:12.478Z,5.57
2019-03-06T23:20:41.102Z,3.90
2019-03-06T23:23:10.567Z,6.53
2019-03-06T23:25:39.191Z,6.90
2019-03-06T23:28:07.777Z,4.23
2019-03-06T23:30:36.379Z,7.90
2019-03-06T23:33:05.043Z,3.67
2019-03-06T23:35:34.147Z,4.33
2019-03-06T23:38:02.827Z,8.23
2019-03-06T23:40:31.488Z,6.63
2019-03-06T23:43:00.055Z,4.67
2019-03-06T23:45:29.210Z,6.30
2019-03-06T23:47:57.819Z,5.37
2019-03-06T23:50:28.288Z,4.97
2019-03-06T23:52:58.543Z,4.67
2019-03-06T23:55:28.972Z,3.97
2019-03-06T23:57:58.191Z,4.63
